Folsom, CA (95630)

10:58 AM PDT on September 20, 2014 (GMT -0700)
Sierra Woods | Change Station
CLOSE
Current Station
Personal Weather Station
Location: Folsom, CA
Elevation: 351 ft
Nearby Weather Stations

Elev 351 ft 38.68 °N, 121.15 °W | Updated 15 seconds ago

Partly Cloudy
Partly Cloudy
78.0 °F
Feels Like 79 °F
N
4.0
Wind Variable Wind from South
Gusts 7.0 mph

Today
High -- | Low -- °F
--% Chance of Precip.
Yesterday
High -- | Low -- °F
Precip. -- in
6:50 AM 7:04 PM
Waning Crescent, 11% visible
Pressure 29.91 in
Visibility 10.0 miles
Clouds Scattered Clouds 12000 ft
Heat Index 79 °F
Dew Point 57 °F
Humidity 48%
Rainfall 0.00 in
Snow Depth 0 in , 0 in , 0 in
UV 5 out of 12
Pollen 5.60 out of 12
Ozone Good
PM2.5 Moderate
Flu Activity Not available.
METAR KMHR 201750Z 00000KT 10SM SCT120 23/15 A2991

More Conditions Fewer Conditions

Pressure 29.91 in
Visibility 10.0 miles
Clouds Scattered Clouds 12000 ft
Heat Index 79 °F
Dew Point 57 °F
Humidity 48%
Rainfall 0.00 in
Snow Depth 0 in , 0 in , 0 in
UV 5 out of 12
Pollen 5.60 out of 12
Ozone Good
PM2.5 Moderate
Flu Activity Not available.
METAR KMHR 201750Z 00000KT 10SM SCT120 23/15 A2991

More Conditions Fewer Conditions

10-Day Weather Forecast

Almanac

Astronomy

Sep. 20, 2014 Rise Set
Actual Time 6:50 AM PDT 7:04 PM PDT
Civil Twilight 6:24 AM PDT 7:31 PM PDT
Nautical Twilight 5:52 AM PDT 8:02 PM PDT
Astronomical Twilight 5:21 AM PDT 8:33 PM PDT
Moon 3:36 AM PDT 5:09 PM PDT
Length of Visible Light 13h 07m
Length of Day
12h 14m
Tomorrow will be 2m 30s shorter.
Waning Crescent, 11% of the Moon is Illuminated
Today
Waning Crescent
Sep 24
New
Oct 1
First Quarter
Oct 8
Full
Oct 15
Last Quarter

Today's Extremes

State Highs State Lows

Community

WunderPhotos

Upload Photos

1,754,914 photos uploaded!

Nearby

Air Quality

  Air Quality AQ Index Pollutant
Yesterday Good
PM10
Yesterday Good
OZONE
Current Moderate
PM2.5
Current Good
OZONE
Saturday Moderate
OZONE
Sunday Moderate
OZONE
Monday Moderate
OZONE
Tuesday Moderate
OZONE
Wednesday Good
OZONE

Snow Depth

Station Depth Elevation
Rubicon #2 0 in 7500 ft
Spratt Creek 0 in 6200 ft
Adin Mountain 0 in 6200 ft
Summit Meadow 0 in 9122 ft
Blue Lakes 0 in 8000 ft

Earthquake Activity

City Distance Mag. Time & Date
Livermore, California 75 miles 2.6 3:37 AM PDT
2014-09-19
The Geysers, California 84 miles 2.5 11:29 PM PDT
2014-09-17
Minimum magnitude displayed is 2.5.

Coastal Water Temperatures

Place Temperature
No Stations Reporting

Nearby Weather Stations